sensor_id;sensor_type;location;lat;lon;timestamp;pressure;altitude;pressure_sealevel;temperature;humidity
11049;BME280;5577;42.706;23.160;2023-08-06T00:02:12;93052.16;;;18.77;100.00
11049;BME280;5577;42.706;23.160;2023-08-06T00:04:56;93087.50;;;18.88;100.00
11049;BME280;5577;42.706;23.160;2023-08-06T00:07:40;93067.19;;;18.59;100.00
11049;BME280;5577;42.706;23.160;2023-08-06T00:10:24;93107.63;;;18.80;100.00
11049;BME280;5577;42.706;23.160;2023-08-06T00:13:08;93038.41;;;18.47;100.00
11049;BME280;5577;42.706;23.160;2023-08-06T00:15:52;93094.47;;;18.86;100.00
11049;BME280;5577;42.706;23.160;2023-08-06T00:18:36;93076.72;;;18.76;100.00
11049;BME280;5577;42.706;23.160;2023-08-06T00:21:20;93094.75;;;18.59;100.00
11049;BME280;5577;42.706;23.160;2023-08-06T00:24:04;93087.13;;;18.42;100.00
11049;BME280;5577;42.706;23.160;2023-08-06T00:26:48;93083.16;;;18.30;100.00
11049;BME280;5577;42.706;23.160;2023-08-06T00:29:32;93071.47;;;18.24;100.00
11049;BME280;5577;42.706;23.160;2023-08-06T00:32:16;93081.16;;;18.18;100.00
11049;BME280;5577;42.706;23.160;2023-08-06T00:35:00;93074.97;;;18.21;100.00
11049;BME280;5577;42.706;23.160;2023-08-06T00:37:44;93092.13;;;18.24;100.00
11049;BME280;5577;42.706;23.160;2023-08-06T00:40:28;93093.75;;;18.37;100.00
11049;BME280;5577;42.706;23.160;2023-08-06T00:43:15;93105.88;;;18.26;100.00
11049;BME280;5577;42.706;23.160;2023-08-06T00:45:59;93085.34;;;18.19;100.00
11049;BME280;5577;42.706;23.160;2023-08-06T00:48:44;93082.53;;;18.42;100.00
11049;BME280;5577;42.706;23.160;2023-08-06T00:51:27;93090.53;;;18.58;100.00
11049;BME280;5577;42.706;23.160;2023-08-06T00:54:12;93090.88;;;18.60;100.00
11049;BME280;5577;42.706;23.160;2023-08-06T00:56:56;93070.69;;;18.72;100.00
11049;BME280;5577;42.706;23.160;2023-08-06T00:59:41;93073.09;;;18.82;100.00
11049;BME280;5577;42.706;23.160;2023-08-06T01:02:25;93075.69;;;18.86;100.00
11049;BME280;5577;42.706;23.160;2023-08-06T01:05:09;93061.81;;;18.75;100.00
11049;BME280;5577;42.706;23.160;2023-08-06T01:17:14;93041.88;;;18.60;100.00
11049;BME280;5577;42.706;23.160;2023-08-06T01:19:58;93046.09;;;18.61;100.00
11049;BME280;5577;42.706;23.160;2023-08-06T01:22:42;93047.75;;;18.71;100.00
11049;BME280;5577;42.706;23.160;2023-08-06T01:25:43;93041.03;;;18.79;100.00
11049;BME280;5577;42.706;23.160;2023-08-06T01:28:40;93047.22;;;18.76;100.00
11049;BME280;5577;42.706;23.160;2023-08-06T01:31:31;93043.94;;;18.84;100.00
11049;BME280;5577;42.706;23.160;2023-08-06T01:34:24;93036.66;;;18.85;100.00
11049;BME280;5577;42.706;23.160;2023-08-06T01:37:08;93031.56;;;18.74;100.00
11049;BME280;5577;42.706;23.160;2023-08-06T01:39:52;93032.94;;;18.66;100.00
11049;BME280;5577;42.706;23.160;2023-08-06T01:42:37;93039.78;;;18.67;100.00
11049;BME280;5577;42.706;23.160;2023-08-06T01:45:21;93054.44;;;18.63;100.00
11049;BME280;5577;42.706;23.160;2023-08-06T01:48:05;93045.75;;;18.59;100.00
11049;BME280;5577;42.706;23.160;2023-08-06T01:50:49;93032.59;;;18.64;100.00
11049;BME280;5577;42.706;23.160;2023-08-06T01:53:33;93040.63;;;18.64;100.00
11049;BME280;5577;42.706;23.160;2023-08-06T01:56:17;93004.50;;;18.69;100.00
11049;BME280;5577;42.706;23.160;2023-08-06T01:59:01;93011.94;;;18.77;100.00
11049;BME280;5577;42.706;23.160;2023-08-06T02:01:45;93014.94;;;18.79;100.00
11049;BME280;5577;42.706;23.160;2023-08-06T02:04:29;93011.78;;;18.68;100.00
11049;BME280;5577;42.706;23.160;2023-08-06T02:07:13;93004.69;;;18.62;100.00
11049;BME280;5577;42.706;23.160;2023-08-06T02:09:57;93000.53;;;18.45;100.00
11049;BME280;5577;42.706;23.160;2023-08-06T02:12:41;93016.97;;;18.47;100.00
11049;BME280;5577;42.706;23.160;2023-08-06T02:15:25;93028.84;;;18.46;100.00
11049;BME280;5577;42.706;23.160;2023-08-06T02:18:09;93019.19;;;18.32;100.00
11049;BME280;5577;42.706;23.160;2023-08-06T02:20:57;93024.72;;;18.25;100.00
11049;BME280;5577;42.706;23.160;2023-08-06T02:23:41;93039.56;;;18.30;100.00
11049;BME280;5577;42.706;23.160;2023-08-06T02:26:25;93047.75;;;18.55;100.00
11049;BME280;5577;42.706;23.160;2023-08-06T02:29:09;93052.13;;;18.49;100.00
11049;BME280;5577;42.706;23.160;2023-08-06T02:31:53;93046.34;;;18.50;100.00
11049;BME280;5577;42.706;23.160;2023-08-06T02:34:37;93041.22;;;18.56;100.00
11049;BME280;5577;42.706;23.160;2023-08-06T02:37:21;93012.56;;;18.53;100.00
11049;BME280;5577;42.706;23.160;2023-08-06T02:40:06;93015.59;;;18.55;100.00
11049;BME280;5577;42.706;23.160;2023-08-06T02:42:50;93018.34;;;18.51;100.00
11049;BME280;5577;42.706;23.160;2023-08-06T02:45:34;93019.31;;;18.45;100.00
11049;BME280;5577;42.706;23.160;2023-08-06T02:48:17;93033.44;;;18.29;100.00
11049;BME280;5577;42.706;23.160;2023-08-06T02:51:02;93054.97;;;18.26;100.00
11049;BME280;5577;42.706;23.160;2023-08-06T02:53:47;92999.22;;;17.89;100.00
11049;BME280;5577;42.706;23.160;2023-08-06T02:56:31;93054.25;;;18.41;100.00
11049;BME280;5577;42.706;23.160;2023-08-06T02:59:15;93052.03;;;18.52;100.00
11049;BME280;5577;42.706;23.160;2023-08-06T03:01:59;93034.25;;;18.58;100.00
11049;BME280;5577;42.706;23.160;2023-08-06T03:04:43;93019.53;;;18.66;100.00
11049;BME280;5577;42.706;23.160;2023-08-06T03:07:27;92985.41;;;18.67;100.00
11049;BME280;5577;42.706;23.160;2023-08-06T03:10:10;92981.56;;;18.68;100.00
11049;BME280;5577;42.706;23.160;2023-08-06T03:12:54;93022.75;;;18.45;100.00
11049;BME280;5577;42.706;23.160;2023-08-06T03:15:38;93018.28;;;18.39;100.00
11049;BME280;5577;42.706;23.160;2023-08-06T03:18:22;93013.00;;;18.51;100.00
11049;BME280;5577;42.706;23.160;2023-08-06T03:21:07;93018.28;;;18.55;100.00
11049;BME280;5577;42.706;23.160;2023-08-06T03:23:51;93011.84;;;18.52;100.00
11049;BME280;5577;42.706;23.160;2023-08-06T03:26:34;93017.16;;;18.40;100.00
11049;BME280;5577;42.706;23.160;2023-08-06T03:29:18;93021.66;;;18.43;100.00
11049;BME280;5577;42.706;23.160;2023-08-06T03:32:02;93021.06;;;18.35;100.00
11049;BME280;5577;42.706;23.160;2023-08-06T03:34:46;93021.75;;;18.39;100.00
11049;BME280;5577;42.706;23.160;2023-08-06T03:37:31;93019.47;;;18.38;100.00
11049;BME280;5577;42.706;23.160;2023-08-06T03:40:15;93040.25;;;18.50;100.00
11049;BME280;5577;42.706;23.160;2023-08-06T03:42:59;93043.41;;;18.45;100.00
11049;BME280;5577;42.706;23.160;2023-08-06T03:45:43;93062.19;;;18.45;100.00
11049;BME280;5577;42.706;23.160;2023-08-06T03:48:27;93048.78;;;18.29;100.00
11049;BME280;5577;42.706;23.160;2023-08-06T03:51:11;93050.88;;;18.37;100.00
11049;BME280;5577;42.706;23.160;2023-08-06T03:53:55;93060.75;;;18.56;100.00
11049;BME280;5577;42.706;23.160;2023-08-06T03:56:39;93058.53;;;18.67;100.00
11049;BME280;5577;42.706;23.160;2023-08-06T03:59:22;93075.22;;;18.75;100.00
11049;BME280;5577;42.706;23.160;2023-08-06T04:02:07;93079.88;;;18.87;100.00
11049;BME280;5577;42.706;23.160;2023-08-06T04:04:50;93082.91;;;18.89;100.00
11049;BME280;5577;42.706;23.160;2023-08-06T04:07:37;93082.56;;;18.87;100.00
11049;BME280;5577;42.706;23.160;2023-08-06T04:10:21;93088.31;;;19.01;100.00
11049;BME280;5577;42.706;23.160;2023-08-06T04:13:05;93086.22;;;18.93;100.00
11049;BME280;5577;42.706;23.160;2023-08-06T04:15:48;93089.03;;;19.02;100.00
11049;BME280;5577;42.706;23.160;2023-08-06T04:18:32;93089.34;;;18.91;100.00
11049;BME280;5577;42.706;23.160;2023-08-06T04:21:16;93080.06;;;18.80;100.00
11049;BME280;5577;42.706;23.160;2023-08-06T04:24:00;93077.66;;;18.69;100.00
11049;BME280;5577;42.706;23.160;2023-08-06T04:26:44;93080.16;;;18.76;100.00
11049;BME280;5577;42.706;23.160;2023-08-06T04:29:28;93086.31;;;18.89;100.00
11049;BME280;5577;42.706;23.160;2023-08-06T04:32:12;93045.38;;;18.73;100.00
11049;BME280;5577;42.706;23.160;2023-08-06T04:34:57;93080.03;;;18.96;100.00
11049;BME280;5577;42.706;23.160;2023-08-06T04:37:41;93066.94;;;18.98;100.00
11049;BME280;5577;42.706;23.160;2023-08-06T04:40:26;93079.31;;;19.08;100.00
11049;BME280;5577;42.706;23.160;2023-08-06T04:43:10;93076.69;;;19.20;100.00
11049;BME280;5577;42.706;23.160;2023-08-06T04:45:54;93078.78;;;19.29;100.00
11049;BME280;5577;42.706;23.160;2023-08-06T04:48:39;93068.91;;;19.38;100.00
11049;BME280;5577;42.706;23.160;2023-08-06T04:51:23;93068.19;;;19.38;100.00
11049;BME280;5577;42.706;23.160;2023-08-06T04:54:07;93064.94;;;19.30;100.00
11049;BME280;5577;42.706;23.160;2023-08-06T04:56:51;93055.31;;;19.17;100.00
11049;BME280;5577;42.706;23.160;2023-08-06T04:59:35;93045.66;;;19.19;100.00
11049;BME280;5577;42.706;23.160;2023-08-06T05:02:19;93029.34;;;19.14;100.00
11049;BME280;5577;42.706;23.160;2023-08-06T05:05:04;93009.47;;;18.99;100.00
11049;BME280;5577;42.706;23.160;2023-08-06T05:07:49;93046.63;;;19.13;100.00
11049;BME280;5577;42.706;23.160;2023-08-06T05:10:33;93039.19;;;19.04;100.00
11049;BME280;5577;42.706;23.160;2023-08-06T05:13:17;93041.72;;;18.95;100.00
11049;BME280;5577;42.706;23.160;2023-08-06T05:16:01;93044.50;;;18.92;100.00
11049;BME280;5577;42.706;23.160;2023-08-06T05:18:45;93044.31;;;18.99;100.00
11049;BME280;5577;42.706;23.160;2023-08-06T05:21:29;92976.47;;;18.57;100.00
11049;BME280;5577;42.706;23.160;2023-08-06T05:24:13;93039.84;;;19.08;100.00
11049;BME280;5577;42.706;23.160;2023-08-06T05:26:57;93034.47;;;19.08;100.00
11049;BME280;5577;42.706;23.160;2023-08-06T05:29:40;93029.22;;;19.17;100.00
11049;BME280;5577;42.706;23.160;2023-08-06T05:32:24;93025.63;;;19.24;100.00
11049;BME280;5577;42.706;23.160;2023-08-06T05:35:08;93022.88;;;19.40;100.00
11049;BME280;5577;42.706;23.160;2023-08-06T05:37:52;93020.63;;;19.51;100.00
11049;BME280;5577;42.706;23.160;2023-08-06T05:40:36;92983.25;;;19.56;100.00
11049;BME280;5577;42.706;23.160;2023-08-06T05:43:20;93010.00;;;19.85;100.00
11049;BME280;5577;42.706;23.160;2023-08-06T05:46:04;93008.94;;;19.95;100.00
11049;BME280;5577;42.706;23.160;2023-08-06T05:48:48;93017.75;;;19.96;100.00
11049;BME280;5577;42.706;23.160;2023-08-06T05:51:33;93010.34;;;19.87;100.00
11049;BME280;5577;42.706;23.160;2023-08-06T05:54:17;93026.78;;;19.89;100.00
11049;BME280;5577;42.706;23.160;2023-08-06T05:57:01;93021.19;;;19.83;100.00
11049;BME280;5577;42.706;23.160;2023-08-06T05:59:46;93033.13;;;19.95;100.00
11049;BME280;5577;42.706;23.160;2023-08-06T06:02:30;93029.78;;;20.04;100.00
11049;BME280;5577;42.706;23.160;2023-08-06T06:05:13;93030.75;;;20.22;100.00
11049;BME280;5577;42.706;23.160;2023-08-06T06:07:57;93040.63;;;20.38;100.00
11049;BME280;5577;42.706;23.160;2023-08-06T06:10:41;93043.38;;;20.59;100.00
11049;BME280;5577;42.706;23.160;2023-08-06T06:13:25;93037.66;;;20.70;100.00
11049;BME280;5577;42.706;23.160;2023-08-06T06:16:09;93039.16;;;20.71;100.00
11049;BME280;5577;42.706;23.160;2023-08-06T06:18:53;93048.03;;;20.80;100.00
11049;BME280;5577;42.706;23.160;2023-08-06T06:21:38;93052.78;;;20.76;100.00
11049;BME280;5577;42.706;23.160;2023-08-06T06:24:22;93054.38;;;20.86;100.00
11049;BME280;5577;42.706;23.160;2023-08-06T06:27:06;93048.69;;;20.72;100.00
11049;BME280;5577;42.706;23.160;2023-08-06T06:29:50;93053.66;;;20.73;100.00
11049;BME280;5577;42.706;23.160;2023-08-06T06:32:36;93046.22;;;20.77;100.00
11049;BME280;5577;42.706;23.160;2023-08-06T06:35:20;93061.88;;;20.91;100.00
11049;BME280;5577;42.706;23.160;2023-08-06T06:38:04;93068.50;;;20.78;100.00
11049;BME280;5577;42.706;23.160;2023-08-06T06:40:57;93062.38;;;20.65;100.00
11049;BME280;5577;42.706;23.160;2023-08-06T06:43:42;93049.53;;;20.47;100.00
11049;BME280;5577;42.706;23.160;2023-08-06T06:46:26;93070.28;;;20.34;100.00
11049;BME280;5577;42.706;23.160;2023-08-06T06:49:10;93068.06;;;20.20;100.00
11049;BME280;5577;42.706;23.160;2023-08-06T06:51:54;93075.47;;;20.16;100.00
11049;BME280;5577;42.706;23.160;2023-08-06T06:54:38;93066.88;;;20.21;100.00
11049;BME280;5577;42.706;23.160;2023-08-06T06:57:21;93067.38;;;20.41;100.00
11049;BME280;5577;42.706;23.160;2023-08-06T07:00:06;93071.94;;;20.66;100.00
11049;BME280;5577;42.706;23.160;2023-08-06T07:02:50;93058.50;;;20.78;100.00
11049;BME280;5577;42.706;23.160;2023-08-06T07:05:34;93037.69;;;20.57;100.00
11049;BME280;5577;42.706;23.160;2023-08-06T07:08:18;93064.16;;;20.93;100.00
11049;BME280;5577;42.706;23.160;2023-08-06T07:11:06;93078.03;;;21.25;100.00
11049;BME280;5577;42.706;23.160;2023-08-06T07:13:56;92931.56;;;20.15;100.00
11049;BME280;5577;42.706;23.160;2023-08-06T07:16:41;93077.66;;;21.14;100.00
11049;BME280;5577;42.706;23.160;2023-08-06T07:19:25;93083.97;;;21.20;100.00
11049;BME280;5577;42.706;23.160;2023-08-06T07:22:09;93090.38;;;21.35;100.00
11049;BME280;5577;42.706;23.160;2023-08-06T07:24:53;93084.66;;;21.55;100.00
11049;BME280;5577;42.706;23.160;2023-08-06T07:27:37;93089.31;;;21.76;100.00
11049;BME280;5577;42.706;23.160;2023-08-06T07:30:21;93090.06;;;21.76;100.00
11049;BME280;5577;42.706;23.160;2023-08-06T07:33:05;93087.97;;;21.59;100.00
11049;BME280;5577;42.706;23.160;2023-08-06T07:35:49;93087.22;;;21.58;100.00
11049;BME280;5577;42.706;23.160;2023-08-06T07:38:34;93088.13;;;21.55;100.00
11049;BME280;5577;42.706;23.160;2023-08-06T07:41:18;93084.66;;;21.55;100.00
11049;BME280;5577;42.706;23.160;2023-08-06T07:44:02;93092.22;;;21.47;100.00
11049;BME280;5577;42.706;23.160;2023-08-06T07:46:46;93086.28;;;21.74;100.00
11049;BME280;5577;42.706;23.160;2023-08-06T07:49:30;93078.84;;;22.08;100.00
11049;BME280;5577;42.706;23.160;2023-08-06T07:52:14;93074.03;;;22.43;100.00
11049;BME280;5577;42.706;23.160;2023-08-06T07:54:57;93074.69;;;22.56;100.00
11049;BME280;5577;42.706;23.160;2023-08-06T07:57:42;93073.38;;;22.79;100.00
11049;BME280;5577;42.706;23.160;2023-08-06T08:00:26;93066.34;;;22.81;100.00
11049;BME280;5577;42.706;23.160;2023-08-06T08:03:10;93063.94;;;22.74;100.00
11049;BME280;5577;42.706;23.160;2023-08-06T08:05:55;93067.22;;;22.78;100.00
11049;BME280;5577;42.706;23.160;2023-08-06T08:08:42;93063.47;;;22.85;100.00
11049;BME280;5577;42.706;23.160;2023-08-06T08:11:26;93059.59;;;22.86;100.00
11049;BME280;5577;42.706;23.160;2023-08-06T08:14:10;92987.50;;;22.59;100.00
11049;BME280;5577;42.706;23.160;2023-08-06T08:16:54;93052.25;;;22.95;100.00
11049;BME280;5577;42.706;23.160;2023-08-06T08:19:40;93051.97;;;23.02;100.00
11049;BME280;5577;42.706;23.160;2023-08-06T08:22:23;93046.44;;;23.33;100.00
11049;BME280;5577;42.706;23.160;2023-08-06T08:25:08;93054.97;;;23.40;100.00
11049;BME280;5577;42.706;23.160;2023-08-06T08:27:52;93051.03;;;23.68;100.00
11049;BME280;5577;42.706;23.160;2023-08-06T08:30:36;93050.94;;;24.04;100.00
11049;BME280;5577;42.706;23.160;2023-08-06T08:33:21;93048.50;;;24.15;100.00
11049;BME280;5577;42.706;23.160;2023-08-06T08:36:05;93057.72;;;24.00;100.00
11049;BME280;5577;42.706;23.160;2023-08-06T08:38:49;93046.44;;;24.01;100.00
11049;BME280;5577;42.706;23.160;2023-08-06T08:41:37;93022.28;;;23.98;100.00
11049;BME280;5577;42.706;23.160;2023-08-06T08:44:22;93050.81;;;23.99;100.00
11049;BME280;5577;42.706;23.160;2023-08-06T08:47:12;92901.75;;;22.81;100.00
11049;BME280;5577;42.706;23.160;2023-08-06T08:49:57;93050.41;;;24.24;100.00
11049;BME280;5577;42.706;23.160;2023-08-06T08:52:42;93040.06;;;24.78;100.00
11049;BME280;5577;42.706;23.160;2023-08-06T08:55:29;93041.97;;;24.87;100.00
11049;BME280;5577;42.706;23.160;2023-08-06T08:58:14;93013.81;;;24.70;100.00
11049;BME280;5577;42.706;23.160;2023-08-06T09:00:58;93028.09;;;25.32;100.00
11049;BME280;5577;42.706;23.160;2023-08-06T09:03:43;93032.88;;;25.81;100.00
11049;BME280;5577;42.706;23.160;2023-08-06T09:06:29;93033.44;;;25.56;100.00
11049;BME280;5577;42.706;23.160;2023-08-06T09:09:17;93031.47;;;25.42;100.00
11049;BME280;5577;42.706;23.160;2023-08-06T09:12:12;93043.38;;;26.02;100.00
11049;BME280;5577;42.706;23.160;2023-08-06T09:14:56;93038.34;;;26.44;90.58
11049;BME280;5577;42.706;23.160;2023-08-06T09:17:40;93027.88;;;26.37;95.96
11049;BME280;5577;42.706;23.160;2023-08-06T09:20:24;93037.06;;;26.25;93.60
11049;BME280;5577;42.706;23.160;2023-08-06T09:23:09;93031.22;;;25.69;98.40
11049;BME280;5577;42.706;23.160;2023-08-06T09:25:54;93021.94;;;25.75;98.15
11049;BME280;5577;42.706;23.160;2023-08-06T09:28:38;93028.84;;;25.47;100.00
11049;BME280;5577;42.706;23.160;2023-08-06T09:31:23;93029.78;;;25.44;94.26
11049;BME280;5577;42.706;23.160;2023-08-06T09:34:23;93022.41;;;25.74;89.89
11049;BME280;5577;42.706;23.160;2023-08-06T09:37:08;93026.59;;;25.75;93.33
11049;BME280;5577;42.706;23.160;2023-08-06T09:39:53;93019.91;;;25.70;99.06
11049;BME280;5577;42.706;23.160;2023-08-06T09:42:42;93015.88;;;25.66;96.49
11049;BME280;5577;42.706;23.160;2023-08-06T09:45:32;93016.88;;;25.54;91.98
11049;BME280;5577;42.706;23.160;2023-08-06T09:48:16;93012.78;;;25.44;97.25
11049;BME280;5577;42.706;23.160;2023-08-06T09:51:01;93017.88;;;25.27;92.77
11049;BME280;5577;42.706;23.160;2023-08-06T09:53:47;93011.50;;;25.16;89.45
11049;BME280;5577;42.706;23.160;2023-08-06T09:56:33;93014.75;;;25.05;97.41
11049;BME280;5577;42.706;23.160;2023-08-06T09:59:24;93016.34;;;25.12;92.17
11049;BME280;5577;42.706;23.160;2023-08-06T10:02:12;93025.28;;;25.03;93.50
11049;BME280;5577;42.706;23.160;2023-08-06T10:04:57;92989.91;;;24.68;94.18
11049;BME280;5577;42.706;23.160;2023-08-06T10:07:43;93020.88;;;24.91;97.80
11049;BME280;5577;42.706;23.160;2023-08-06T10:10:29;93011.78;;;24.79;97.78
11049;BME280;5577;42.706;23.160;2023-08-06T10:13:13;93029.81;;;24.82;100.00
11049;BME280;5577;42.706;23.160;2023-08-06T10:15:58;93021.78;;;24.88;94.04
11049;BME280;5577;42.706;23.160;2023-08-06T10:18:43;93023.06;;;24.78;95.53
11049;BME280;5577;42.706;23.160;2023-08-06T10:21:27;93027.75;;;24.77;99.47
11049;BME280;5577;42.706;23.160;2023-08-06T10:24:13;93030.34;;;24.72;96.94
11049;BME280;5577;42.706;23.160;2023-08-06T10:26:59;93036.72;;;24.83;99.93
11049;BME280;5577;42.706;23.160;2023-08-06T10:29:43;93028.13;;;24.85;99.99
11049;BME280;5577;42.706;23.160;2023-08-06T10:32:46;93039.13;;;25.05;100.00
11049;BME280;5577;42.706;23.160;2023-08-06T10:35:36;93035.13;;;25.15;100.00
11049;BME280;5577;42.706;23.160;2023-08-06T10:38:24;93040.00;;;25.26;99.26
11049;BME280;5577;42.706;23.160;2023-08-06T10:41:29;93038.75;;;25.36;100.00
11049;BME280;5577;42.706;23.160;2023-08-06T10:44:13;93061.06;;;25.31;99.21
11049;BME280;5577;42.706;23.160;2023-08-06T10:47:26;93062.97;;;25.16;100.00
11049;BME280;5577;42.706;23.160;2023-08-06T10:50:14;93060.25;;;24.92;100.00
11049;BME280;5577;42.706;23.160;2023-08-06T10:53:05;93055.91;;;24.71;100.00
11049;BME280;5577;42.706;23.160;2023-08-06T10:55:52;93066.72;;;24.06;100.00
11049;BME280;5577;42.706;23.160;2023-08-06T10:58:36;93068.41;;;23.67;100.00
11049;BME280;5577;42.706;23.160;2023-08-06T11:01:21;93075.97;;;23.45;100.00
11049;BME280;5577;42.706;23.160;2023-08-06T11:04:07;93074.50;;;23.26;100.00
11049;BME280;5577;42.706;23.160;2023-08-06T11:06:54;93080.63;;;23.18;100.00
11049;BME280;5577;42.706;23.160;2023-08-06T11:09:38;93075.50;;;23.20;100.00
11049;BME280;5577;42.706;23.160;2023-08-06T11:12:22;93066.78;;;23.52;100.00
11049;BME280;5577;42.706;23.160;2023-08-06T11:15:07;93059.19;;;24.42;100.00
11049;BME280;5577;42.706;23.160;2023-08-06T11:17:51;93042.66;;;24.40;100.00
11049;BME280;5577;42.706;23.160;2023-08-06T11:20:36;93060.78;;;24.58;100.00
11049;BME280;5577;42.706;23.160;2023-08-06T11:23:20;93061.50;;;24.58;100.00
11049;BME280;5577;42.706;23.160;2023-08-06T11:26:04;93061.94;;;24.89;96.87
11049;BME280;5577;42.706;23.160;2023-08-06T11:28:49;93062.72;;;25.95;95.22
11049;BME280;5577;42.706;23.160;2023-08-06T11:31:36;93062.84;;;26.84;84.49
11049;BME280;5577;42.706;23.160;2023-08-06T11:34:20;93060.53;;;27.58;92.03
11049;BME280;5577;42.706;23.160;2023-08-06T11:37:05;93055.91;;;27.64;96.49
11049;BME280;5577;42.706;23.160;2023-08-06T11:39:50;93042.59;;;27.45;88.45
11049;BME280;5577;42.706;23.160;2023-08-06T11:42:35;93048.31;;;26.67;87.14
11049;BME280;5577;42.706;23.160;2023-08-06T11:45:24;93049.16;;;27.33;84.32
11049;BME280;5577;42.706;23.160;2023-08-06T11:48:08;93038.06;;;27.17;80.22
11049;BME280;5577;42.706;23.160;2023-08-06T11:50:54;93027.06;;;26.66;80.95
11049;BME280;5577;42.706;23.160;2023-08-06T11:53:39;93048.53;;;27.04;78.77
11049;BME280;5577;42.706;23.160;2023-08-06T11:56:24;93045.31;;;27.45;81.56
11049;BME280;5577;42.706;23.160;2023-08-06T11:59:09;93041.72;;;26.94;75.55
11049;BME280;5577;42.706;23.160;2023-08-06T12:01:54;93040.41;;;26.35;79.04
11049;BME280;5577;42.706;23.160;2023-08-06T12:04:57;93035.31;;;25.93;84.36
11049;BME280;5577;42.706;23.160;2023-08-06T12:07:45;93029.97;;;26.62;83.22
11049;BME280;5577;42.706;23.160;2023-08-06T12:10:30;93028.00;;;27.69;75.87
11049;BME280;5577;42.706;23.160;2023-08-06T12:13:15;93020.59;;;27.95;70.74
11049;BME280;5577;42.706;23.160;2023-08-06T12:15:58;93036.53;;;27.56;73.16
11049;BME280;5577;42.706;23.160;2023-08-06T12:18:42;93023.94;;;27.13;69.28
11049;BME280;5577;42.706;23.160;2023-08-06T12:21:26;93020.59;;;27.03;76.23
11049;BME280;5577;42.706;23.160;2023-08-06T12:24:10;93026.13;;;27.29;72.29
11049;BME280;5577;42.706;23.160;2023-08-06T12:26:55;93022.91;;;27.10;71.59
11049;BME280;5577;42.706;23.160;2023-08-06T12:29:43;93026.88;;;26.89;76.63
11049;BME280;5577;42.706;23.160;2023-08-06T12:32:27;93030.47;;;26.46;78.15
11049;BME280;5577;42.706;23.160;2023-08-06T12:35:11;93035.50;;;26.19;79.25
11049;BME280;5577;42.706;23.160;2023-08-06T12:37:55;93039.81;;;25.96;81.14
11049;BME280;5577;42.706;23.160;2023-08-06T12:40:41;93036.44;;;25.87;83.42
11049;BME280;5577;42.706;23.160;2023-08-06T12:43:25;93032.13;;;25.66;84.02
11049;BME280;5577;42.706;23.160;2023-08-06T12:46:08;93039.25;;;25.63;86.22
11049;BME280;5577;42.706;23.160;2023-08-06T12:48:54;93037.38;;;25.55;87.73
11049;BME280;5577;42.706;23.160;2023-08-06T12:51:37;93034.19;;;25.42;87.07
11049;BME280;5577;42.706;23.160;2023-08-06T12:54:22;93025.28;;;25.41;85.40
11049;BME280;5577;42.706;23.160;2023-08-06T12:57:06;93040.00;;;25.49;84.61
11049;BME280;5577;42.706;23.160;2023-08-06T12:59:50;93035.19;;;25.44;84.14
11049;BME280;5577;42.706;23.160;2023-08-06T13:02:34;93029.22;;;25.40;84.75
11049;BME280;5577;42.706;23.160;2023-08-06T13:05:18;93026.72;;;25.37;86.21
11049;BME280;5577;42.706;23.160;2023-08-06T13:08:03;93031.06;;;25.34;85.08
11049;BME280;5577;42.706;23.160;2023-08-06T13:10:47;93035.47;;;25.32;90.98
11049;BME280;5577;42.706;23.160;2023-08-06T13:13:31;93033.63;;;25.38;85.84
11049;BME280;5577;42.706;23.160;2023-08-06T13:16:15;93038.00;;;25.50;87.72
11049;BME280;5577;42.706;23.160;2023-08-06T13:19:00;93047.06;;;25.47;88.40
11049;BME280;5577;42.706;23.160;2023-08-06T13:24:32;93046.47;;;25.28;92.14
11049;BME280;5577;42.706;23.160;2023-08-06T13:27:16;93041.94;;;25.11;91.05
11049;BME280;5577;42.706;23.160;2023-08-06T13:30:00;93047.78;;;25.33;91.79
11049;BME280;5577;42.706;23.160;2023-08-06T13:32:45;93040.47;;;25.77;90.56
11049;BME280;5577;42.706;23.160;2023-08-06T13:35:29;93041.13;;;26.50;84.92
11049;BME280;5577;42.706;23.160;2023-08-06T13:38:13;93028.63;;;26.92;83.62
11049;BME280;5577;42.706;23.160;2023-08-06T13:40:57;93043.75;;;27.19;79.17
11049;BME280;5577;42.706;23.160;2023-08-06T13:43:42;93020.84;;;27.71;74.09
11049;BME280;5577;42.706;23.160;2023-08-06T13:46:26;93032.38;;;28.17;73.05
11049;BME280;5577;42.706;23.160;2023-08-06T13:49:09;93046.34;;;28.30;68.42
11049;BME280;5577;42.706;23.160;2023-08-06T13:51:53;93035.34;;;28.45;68.82
11049;BME280;5577;42.706;23.160;2023-08-06T13:54:37;93024.84;;;28.69;68.04
11049;BME280;5577;42.706;23.160;2023-08-06T13:57:21;93038.34;;;28.94;61.23
11049;BME280;5577;42.706;23.160;2023-08-06T14:00:05;93016.00;;;28.79;58.36
11049;BME280;5577;42.706;23.160;2023-08-06T14:02:50;93029.25;;;29.08;55.93
11049;BME280;5577;42.706;23.160;2023-08-06T14:05:34;93025.13;;;29.24;54.76
11049;BME280;5577;42.706;23.160;2023-08-06T14:08:18;93029.41;;;29.41;56.42
11049;BME280;5577;42.706;23.160;2023-08-06T14:11:02;93001.34;;;29.24;53.27
11049;BME280;5577;42.706;23.160;2023-08-06T14:13:46;93028.34;;;29.28;56.09
11049;BME280;5577;42.706;23.160;2023-08-06T14:16:29;93017.38;;;29.06;57.46
11049;BME280;5577;42.706;23.160;2023-08-06T14:19:13;93017.41;;;29.17;53.96
11049;BME280;5577;42.706;23.160;2023-08-06T14:21:57;93014.16;;;29.07;54.40
11049;BME280;5577;42.706;23.160;2023-08-06T14:24:42;93022.91;;;28.75;54.92
11049;BME280;5577;42.706;23.160;2023-08-06T14:27:26;93032.88;;;28.16;55.07
11049;BME280;5577;42.706;23.160;2023-08-06T14:30:10;93039.53;;;27.84;57.97
11049;BME280;5577;42.706;23.160;2023-08-06T14:32:55;93040.22;;;27.53;59.53
11049;BME280;5577;42.706;23.160;2023-08-06T14:35:39;93043.13;;;27.24;57.66
11049;BME280;5577;42.706;23.160;2023-08-06T14:38:23;93040.53;;;26.95;58.95